Time;durP1;ratioP1;P1;durP2;ratioP2;P2;SDS_P1;SDS_P2;PMS_P1;PMS_P2;Temp;Humidity;BMP_temperature;BMP_pressure;BME280_temperature;BME280_humidity;BME280_pressure;Samples;Min_cycle;Max_cycle;Signal;HPM_P1;HPM_P2
2021/11/11 00:00:14;;;;;;;15.68;11.73;;;;;;;;;;5093635;28;20222;-63
2021/11/11 00:02:42;;;;;;;13.60;10.68;;;;;;;;;;5094081;28;20209;-64
2021/11/11 00:05:11;;;;;;;12.40;10.35;;;;;;;;;;5093641;28;20234;-63
2021/11/11 00:07:39;;;;;;;15.88;11.60;;;;;;;;;;5093818;28;20207;-64
2021/11/11 00:10:07;;;;;;;16.23;11.65;;;;;;;;;;5094383;28;20207;-63
2021/11/11 00:12:34;;;;;;;17.23;11.18;;;;;;;;;;5097817;28;20207;-63
2021/11/11 00:15:02;;;;;;;15.60;10.27;;;;;;;;;;5101617;28;20253;-63
2021/11/11 00:17:29;;;;;;;16.88;11.35;;;;;;;;;;5094378;28;20583;-63
2021/11/11 00:19:57;;;;;;;14.18;11.50;;;;;;;;;;5098805;28;20208;-63
2021/11/11 00:22:26;;;;;;;13.15;11.85;;;;;;;;;;5105931;28;20203;-63
2021/11/11 00:24:53;;;;;;;16.23;10.93;;;;;;;;;;5109082;28;20223;-64
2021/11/11 00:27:21;;;;;;;13.60;9.90;;;;;;;;;;5111082;28;20192;-62
2021/11/11 00:29:48;;;;;;;13.85;10.80;;;;;;;;;;5107687;28;20202;-63
2021/11/11 00:32:15;;;;;;;15.70;11.50;;;;;;;;;;5098850;28;20211;-63
2021/11/11 00:34:43;;;;;;;12.63;9.38;;;;;;;;;;5097759;28;20230;-64
2021/11/11 00:37:11;;;;;;;14.10;10.55;;;;;;;;;;5098212;28;20207;-64
2021/11/11 00:39:39;;;;;;;15.45;10.50;;;;;;;;;;5097740;28;20546;-64
2021/11/11 00:42:07;;;;;;;14.35;10.07;;;;;;;;;;5097407;28;20577;-63
2021/11/11 00:44:35;;;;;;;11.30;10.20;;;;;;;;;;5097102;28;20197;-64
2021/11/11 00:47:02;;;;;;;10.90;9.70;;;;;;;;;;5097074;28;20207;-64
2021/11/11 00:49:30;;;;;;;11.60;9.90;;;;;;;;;;5097347;28;20213;-63
2021/11/11 00:51:58;;;;;;;13.60;9.77;;;;;;;;;;5097405;28;20204;-63
2021/11/11 00:54:25;;;;;;;12.73;10.60;;;;;;;;;;5096900;28;20226;-64
2021/11/11 00:56:54;;;;;;;12.52;10.43;;;;;;;;;;5096790;28;20230;-63
2021/11/11 00:59:21;;;;;;;14.38;9.75;;;;;;;;;;5096806;28;20207;-63
2021/11/11 01:01:49;;;;;;;11.30;10.10;;;;;;;;;;5098632;28;20203;-63
2021/11/11 01:04:17;;;;;;;15.70;11.13;;;;;;;;;;5097907;28;20250;-62
2021/11/11 01:06:44;;;;;;;16.48;9.90;;;;;;;;;;5097950;28;20594;-62
2021/11/11 01:09:12;;;;;;;13.20;10.35;;;;;;;;;;5098182;28;20214;-63
2021/11/11 01:11:39;;;;;;;13.55;10.02;;;;;;;;;;5097335;28;20219;-63
2021/11/11 01:14:08;;;;;;;11.60;9.35;;;;;;;;;;5097079;28;20755;-64
2021/11/11 01:16:35;;;;;;;12.90;10.13;;;;;;;;;;5096325;28;20219;-62
2021/11/11 01:19:02;;;;;;;11.20;9.70;;;;;;;;;;5096438;28;20210;-63
2021/11/11 01:21:30;;;;;;;10.88;9.57;;;;;;;;;;5096554;28;20196;-63
2021/11/11 01:23:57;;;;;;;13.05;10.00;;;;;;;;;;5096286;28;20196;-63
2021/11/11 01:26:25;;;;;;;12.93;10.48;;;;;;;;;;5096014;28;20281;-63
2021/11/11 01:28:52;;;;;;;12.15;9.85;;;;;;;;;;5096264;28;20211;-64
2021/11/11 01:31:21;;;;;;;14.68;10.75;;;;;;;;;;5096102;28;20200;-64
2021/11/11 01:33:48;;;;;;;16.80;9.85;;;;;;;;;;5097889;28;20223;-63
2021/11/11 01:36:15;;;;;;;10.82;9.23;;;;;;;;;;5097853;28;20224;-64
2021/11/11 01:38:43;;;;;;;11.80;9.85;;;;;;;;;;5098870;28;20204;-62
2021/11/11 01:41:10;;;;;;;13.40;8.80;;;;;;;;;;5099062;28;20200;-62
2021/11/11 01:58:57;;;;;;;13.90;9.60;;;;;;;;;;5099461;28;20158;-63
2021/11/11 02:01:24;;;;;;;11.82;8.85;;;;;;;;;;5098750;28;20203;-63
2021/11/11 02:03:53;;;;;;;13.05;8.90;;;;;;;;;;5098751;28;20226;-63
2021/11/11 02:06:20;;;;;;;12.80;10.93;;;;;;;;;;5097812;28;20231;-64
2021/11/11 02:08:48;;;;;;;13.35;9.95;;;;;;;;;;5096756;28;20204;-63
2021/11/11 02:11:16;;;;;;;12.45;9.48;;;;;;;;;;5095618;28;20205;-63
2021/11/11 02:13:43;;;;;;;11.70;10.48;;;;;;;;;;5095259;28;20220;-64
2021/11/11 02:16:12;;;;;;;13.65;10.48;;;;;;;;;;5100103;28;20231;-63
2021/11/11 02:18:39;;;;;;;12.13;9.60;;;;;;;;;;5103449;28;20672;-64
2021/11/11 02:21:08;;;;;;;12.57;9.55;;;;;;;;;;5095675;28;20200;-63
2021/11/11 02:23:36;;;;;;;12.55;10.60;;;;;;;;;;5095359;28;20197;-63
2021/11/11 02:26:04;;;;;;;11.85;9.85;;;;;;;;;;5094897;28;20238;-63
2021/11/11 02:28:31;;;;;;;11.32;9.55;;;;;;;;;;5095215;28;20242;-63
2021/11/11 02:30:59;;;;;;;16.02;10.45;;;;;;;;;;5095494;28;20207;-63
2021/11/11 02:33:27;;;;;;;11.82;10.00;;;;;;;;;;5095408;28;20215;-63
2021/11/11 02:35:55;;;;;;;11.82;9.23;;;;;;;;;;5095607;28;20227;-64
2021/11/11 02:38:24;;;;;;;15.15;9.30;;;;;;;;;;5095044;28;20204;-64
2021/11/11 02:40:52;;;;;;;10.73;9.18;;;;;;;;;;5095327;28;20206;-63
2021/11/11 02:43:19;;;;;;;13.85;10.90;;;;;;;;;;5095221;28;20614;-62
2021/11/11 02:45:48;;;;;;;10.77;9.55;;;;;;;;;;5095131;28;20230;-63
2021/11/11 02:48:18;;;;;;;11.48;10.07;;;;;;;;;;5094085;28;20222;-63
2021/11/11 02:50:45;;;;;;;12.43;10.27;;;;;;;;;;5094684;28;20589;-64
2021/11/11 02:53:13;;;;;;;12.35;9.52;;;;;;;;;;5094537;28;20660;-64
2021/11/11 02:55:42;;;;;;;16.92;11.18;;;;;;;;;;5094406;28;20228;-63
2021/11/11 02:58:10;;;;;;;12.45;9.95;;;;;;;;;;5094704;28;20202;-64
2021/11/11 03:00:41;;;;;;;14.65;9.75;;;;;;;;;;5094888;28;20211;-62
2021/11/11 03:03:09;;;;;;;13.57;10.30;;;;;;;;;;5094744;28;20663;-63
2021/11/11 03:05:36;;;;;;;14.48;10.80;;;;;;;;;;5095247;28;20212;-64
2021/11/11 03:08:04;;;;;;;17.10;9.50;;;;;;;;;;5099535;28;20221;-62
2021/11/11 03:10:32;;;;;;;15.02;10.35;;;;;;;;;;5100008;28;20207;-63
2021/11/11 03:13:02;;;;;;;16.98;10.43;;;;;;;;;;5097852;28;20204;-63
2021/11/11 03:15:30;;;;;;;11.77;9.57;;;;;;;;;;5096150;28;20231;-63
2021/11/11 03:17:58;;;;;;;13.95;10.25;;;;;;;;;;5095163;28;20208;-63
2021/11/11 03:20:26;;;;;;;13.55;10.70;;;;;;;;;;5095097;28;20211;-62
2021/11/11 03:22:53;;;;;;;16.52;9.80;;;;;;;;;;5094286;28;20207;-63
2021/11/11 03:25:22;;;;;;;11.52;9.45;;;;;;;;;;5094032;28;20741;-63
2021/11/11 03:27:50;;;;;;;11.82;10.60;;;;;;;;;;5094488;28;20274;-64
2021/11/11 03:30:20;;;;;;;11.50;9.73;;;;;;;;;;5093891;28;20207;-64
2021/11/11 03:32:48;;;;;;;13.25;9.73;;;;;;;;;;5094309;28;20203;-63
2021/11/11 03:35:16;;;;;;;12.20;10.85;;;;;;;;;;5094339;28;20231;-63
2021/11/11 03:37:44;;;;;;;12.30;9.40;;;;;;;;;;5100943;28;20209;-63
2021/11/11 03:40:13;;;;;;;15.40;10.65;;;;;;;;;;5104938;28;20210;-63
2021/11/11 03:42:40;;;;;;;14.65;10.65;;;;;;;;;;5104386;28;20213;-63
2021/11/11 03:45:08;;;;;;;13.82;10.55;;;;;;;;;;5105242;28;20223;-63
2021/11/11 03:47:37;;;;;;;13.75;10.70;;;;;;;;;;5096321;28;20199;-63
2021/11/11 03:50:04;;;;;;;19.33;11.15;;;;;;;;;;5094593;28;20208;-64
2021/11/11 03:52:32;;;;;;;13.52;10.65;;;;;;;;;;5095964;28;20204;-63
2021/11/11 03:54:59;;;;;;;14.10;9.73;;;;;;;;;;5095603;28;20230;-64
2021/11/11 03:57:26;;;;;;;13.95;9.43;;;;;;;;;;5095968;28;20203;-62
2021/11/11 03:59:56;;;;;;;14.02;10.25;;;;;;;;;;5096533;28;20196;-63
2021/11/11 04:02:24;;;;;;;12.13;9.40;;;;;;;;;;5097067;28;20203;-63
2021/11/11 04:04:53;;;;;;;14.45;10.68;;;;;;;;;;5094908;28;20212;-63
2021/11/11 04:08:54;;;;;;;11.93;10.57;;;;;;;;;;5091691;27;20546;-63
2021/11/11 04:11:21;;;;;;;15.73;11.15;;;;;;;;;;5091080;28;20632;-62
2021/11/11 04:13:49;;;;;;;16.15;11.40;;;;;;;;;;5091595;28;20201;-63
2021/11/11 04:16:16;;;;;;;14.10;11.48;;;;;;;;;;5092620;28;20225;-63
2021/11/11 04:18:44;;;;;;;14.63;10.77;;;;;;;;;;5092438;28;20203;-63
2021/11/11 04:21:11;;;;;;;12.35;11.05;;;;;;;;;;5095702;28;20204;-65
2021/11/11 04:23:39;;;;;;;15.10;11.00;;;;;;;;;;5064793;22;20226;-60
2021/11/11 04:26:11;;;;;;;12.40;11.10;;;;;;;;;;5030381;28;20215;-59
2021/11/11 04:28:43;;;;;;;15.73;11.98;;;;;;;;;;5030234;28;20203;-59
2021/11/11 04:31:17;;;;;;;18.50;12.30;;;;;;;;;;5030566;28;20252;-59
2021/11/11 04:33:45;;;;;;;20.52;12.32;;;;;;;;;;5030134;28;20222;-59
2021/11/11 04:36:24;;;;;;;18.60;11.63;;;;;;;;;;5030064;28;20207;-59
2021/11/11 04:39:03;;;;;;;13.32;10.70;;;;;;;;;;5030460;28;20182;-59
2021/11/11 04:41:56;;;;;;;15.00;11.35;;;;;;;;;;5030284;28;20197;-59
2021/11/11 04:44:31;;;;;;;14.35;11.05;;;;;;;;;;5030448;28;20190;-60
2021/11/11 04:47:12;;;;;;;16.60;12.80;;;;;;;;;;5030042;28;20301;-59
2021/11/11 04:52:47;;;;;;;15.18;12.07;;;;;;;;;;4994020;28;20221;-59
2021/11/11 05:00:59;;;;;;;18.65;11.60;;;;;;;;;;5029938;28;20194;-58
2021/11/11 05:03:32;;;;;;;17.25;12.15;;;;;;;;;;5029603;28;20714;-58
2021/11/11 05:06:01;;;;;;;15.40;11.82;;;;;;;;;;5029420;28;20643;-59
2021/11/11 05:08:29;;;;;;;14.40;12.20;;;;;;;;;;5029633;28;20226;-59
2021/11/11 05:10:56;;;;;;;13.35;11.35;;;;;;;;;;5029727;28;20198;-59
2021/11/11 05:13:25;;;;;;;13.77;10.93;;;;;;;;;;5029622;28;20219;-59
2021/11/11 05:15:53;;;;;;;12.20;10.45;;;;;;;;;;5029642;28;20225;-59
2021/11/11 05:18:20;;;;;;;15.43;12.20;;;;;;;;;;5026519;28;20200;-58
2021/11/11 05:20:48;;;;;;;13.88;12.48;;;;;;;;;;5016183;28;20206;-59
2021/11/11 05:23:15;;;;;;;16.30;12.90;;;;;;;;;;5016033;28;20227;-59
2021/11/11 05:25:43;;;;;;;15.52;12.35;;;;;;;;;;5016269;28;20217;-58
2021/11/11 05:28:10;;;;;;;18.80;13.32;;;;;;;;;;5017130;28;20223;-59
2021/11/11 05:30:39;;;;;;;18.58;13.15;;;;;;;;;;5015973;28;20207;-59
2021/11/11 05:33:06;;;;;;;16.58;12.20;;;;;;;;;;5016404;28;20592;-59
2021/11/11 05:35:34;;;;;;;18.30;11.90;;;;;;;;;;5015910;28;20207;-59
2021/11/11 05:38:01;;;;;;;15.93;12.30;;;;;;;;;;5016400;28;20199;-58
2021/11/11 05:40:29;;;;;;;15.55;12.70;;;;;;;;;;5016241;28;20205;-59
2021/11/11 05:42:56;;;;;;;16.42;12.45;;;;;;;;;;5015933;28;20718;-59
2021/11/11 05:45:23;;;;;;;18.33;13.80;;;;;;;;;;5016711;28;20198;-59
2021/11/11 05:47:52;;;;;;;15.38;12.95;;;;;;;;;;5015689;28;20215;-59
2021/11/11 05:50:20;;;;;;;15.38;12.00;;;;;;;;;;5015984;28;20207;-59
2021/11/11 05:52:47;;;;;;;16.20;12.80;;;;;;;;;;5015755;28;20219;-59
2021/11/11 05:55:15;;;;;;;20.70;13.43;;;;;;;;;;5015573;28;20203;-58
2021/11/11 05:57:43;;;;;;;21.88;13.30;;;;;;;;;;5015964;28;20222;-59
2021/11/11 06:00:11;;;;;;;20.13;13.65;;;;;;;;;;5015792;28;20218;-59
2021/11/11 06:02:38;;;;;;;21.13;13.80;;;;;;;;;;5015769;28;20218;-59
2021/11/11 06:05:08;;;;;;;17.27;13.70;;;;;;;;;;5015413;28;20214;-59
2021/11/11 06:07:35;;;;;;;22.83;14.68;;;;;;;;;;5015458;28;20572;-59
2021/11/11 06:10:02;;;;;;;24.10;15.52;;;;;;;;;;5015331;28;20214;-57
2021/11/11 06:12:29;;;;;;;18.23;13.93;;;;;;;;;;5015250;28;20393;-57
2021/11/11 06:14:57;;;;;;;18.70;14.35;;;;;;;;;;5015233;28;20668;-57
2021/11/11 06:17:25;;;;;;;22.35;14.32;;;;;;;;;;5015562;28;20195;-57
2021/11/11 06:19:52;;;;;;;20.05;13.95;;;;;;;;;;5014927;28;20249;-58
2021/11/11 06:22:22;;;;;;;19.85;13.98;;;;;;;;;;5014949;28;20702;-58
2021/11/11 06:24:50;;;;;;;22.77;14.82;;;;;;;;;;5014852;28;20229;-57
2021/11/11 06:27:18;;;;;;;18.40;13.20;;;;;;;;;;5015035;28;20675;-58
2021/11/11 06:29:45;;;;;;;21.85;15.15;;;;;;;;;;5014986;28;20214;-58
2021/11/11 06:32:12;;;;;;;19.75;14.55;;;;;;;;;;5014618;28;20227;-58
2021/11/11 06:34:40;;;;;;;17.92;13.90;;;;;;;;;;5014540;28;20226;-58
2021/11/11 06:37:07;;;;;;;18.80;14.70;;;;;;;;;;5014507;28;20213;-57
2021/11/11 06:39:37;;;;;;;18.13;14.55;;;;;;;;;;5015585;28;20217;-58
2021/11/11 06:42:05;;;;;;;17.15;13.52;;;;;;;;;;5014726;28;20223;-58
2021/11/11 06:44:32;;;;;;;18.77;14.55;;;;;;;;;;5014030;28;20207;-62
2021/11/11 06:46:59;;;;;;;17.73;13.80;;;;;;;;;;5014741;28;20545;-59
2021/11/11 06:49:26;;;;;;;20.83;14.65;;;;;;;;;;5014567;28;20228;-59
2021/11/11 06:51:54;;;;;;;16.20;14.35;;;;;;;;;;5013903;28;20205;-58
2021/11/11 06:54:21;;;;;;;16.38;14.05;;;;;;;;;;5013896;28;20209;-62
2021/11/11 06:56:50;;;;;;;17.48;14.18;;;;;;;;;;5014499;28;20554;-59
2021/11/11 06:59:17;;;;;;;20.20;15.13;;;;;;;;;;5013914;28;20287;-60
2021/11/11 07:01:44;;;;;;;17.35;14.05;;;;;;;;;;5013656;28;20679;-59
2021/11/11 07:04:12;;;;;;;17.95;14.45;;;;;;;;;;5013981;28;20604;-58
2021/11/11 07:06:39;;;;;;;24.38;13.85;;;;;;;;;;5014315;28;20207;-60
2021/11/11 07:09:07;;;;;;;17.33;13.98;;;;;;;;;;5013767;28;20226;-59
2021/11/11 07:11:34;;;;;;;16.92;13.32;;;;;;;;;;5013863;28;20226;-60
2021/11/11 07:14:02;;;;;;;19.25;12.57;;;;;;;;;;5013800;28;20231;-61
2021/11/11 07:16:30;;;;;;;17.38;14.15;;;;;;;;;;5014104;28;20258;-59
2021/11/11 07:18:57;;;;;;;16.83;14.48;;;;;;;;;;5014651;28;20214;-60
2021/11/11 07:21:24;;;;;;;20.58;14.85;;;;;;;;;;5014016;28;20203;-60
2021/11/11 07:23:52;;;;;;;15.27;12.75;;;;;;;;;;5013504;28;20345;-59
2021/11/11 07:26:19;;;;;;;16.77;15.00;;;;;;;;;;5014538;28;20227;-59
2021/11/11 07:28:46;;;;;;;18.40;14.25;;;;;;;;;;5013728;28;20701;-60
2021/11/11 07:31:19;;;;;;;18.23;12.82;;;;;;;;;;5014171;28;20229;-59
2021/11/11 07:33:47;;;;;;;15.68;12.73;;;;;;;;;;5013537;28;20313;-61
2021/11/11 07:36:14;;;;;;;18.38;13.57;;;;;;;;;;5013686;28;20210;-60
2021/11/11 07:38:42;;;;;;;16.27;13.13;;;;;;;;;;5013499;28;20671;-60
2021/11/11 07:41:09;;;;;;;17.48;14.20;;;;;;;;;;5013604;28;20203;-59
2021/11/11 07:43:37;;;;;;;17.95;12.27;;;;;;;;;;5013029;28;20230;-60
2021/11/11 07:46:05;;;;;;;15.95;12.30;;;;;;;;;;5013177;28;20207;-60
2021/11/11 07:48:35;;;;;;;17.02;12.35;;;;;;;;;;5012988;28;20269;-60
2021/11/11 07:51:04;;;;;;;14.70;11.00;;;;;;;;;;5014371;28;20261;-59
2021/11/11 07:53:32;;;;;;;16.60;13.05;;;;;;;;;;5013666;28;20223;-59
2021/11/11 07:55:59;;;;;;;16.08;13.57;;;;;;;;;;5013939;28;20221;-59
2021/11/11 07:58:26;;;;;;;14.68;11.82;;;;;;;;;;5013974;28;20296;-59
2021/11/11 08:00:55;;;;;;;17.65;12.63;;;;;;;;;;5013750;28;20207;-58
2021/11/11 08:03:23;;;;;;;17.65;11.68;;;;;;;;;;5012897;28;20230;-60
2021/11/11 08:05:51;;;;;;;17.60;12.10;;;;;;;;;;5013456;28;20290;-60
2021/11/11 08:08:19;;;;;;;18.33;12.50;;;;;;;;;;5013792;28;20227;-60
2021/11/11 08:10:46;;;;;;;16.90;12.90;;;;;;;;;;5013525;28;20206;-60
2021/11/11 08:13:15;;;;;;;17.67;12.55;;;;;;;;;;5012946;28;20230;-59
2021/11/11 08:15:42;;;;;;;16.30;12.38;;;;;;;;;;5012957;28;20297;-60
2021/11/11 08:18:09;;;;;;;15.25;11.98;;;;;;;;;;5013128;28;20204;-59
2021/11/11 08:20:37;;;;;;;15.23;11.70;;;;;;;;;;5012756;28;20701;-60
2021/11/11 08:23:06;;;;;;;17.48;12.07;;;;;;;;;;5012789;28;20231;-60
2021/11/11 08:25:33;;;;;;;14.65;12.25;;;;;;;;;;5012781;28;20299;-61
2021/11/11 08:28:01;;;;;;;13.82;11.55;;;;;;;;;;5012943;28;20227;-60
2021/11/11 08:30:28;;;;;;;15.85;11.30;;;;;;;;;;5012818;28;20575;-60
2021/11/11 08:32:56;;;;;;;14.73;10.88;;;;;;;;;;5012923;28;20229;-61
2021/11/11 08:35:24;;;;;;;18.00;11.55;;;;;;;;;;5013043;28;20206;-61
2021/11/11 08:37:54;;;;;;;15.98;12.07;;;;;;;;;;5012691;28;20698;-60
2021/11/11 08:40:23;;;;;;;14.15;11.10;;;;;;;;;;5012505;28;20245;-60
2021/11/11 08:42:53;;;;;;;22.25;13.38;;;;;;;;;;5012527;28;20602;-59
2021/11/11 08:45:20;;;;;;;13.18;11.68;;;;;;;;;;5012793;28;20202;-60
2021/11/11 08:47:48;;;;;;;16.55;12.77;;;;;;;;;;5012736;28;20204;-60
2021/11/11 08:50:15;;;;;;;13.93;11.95;;;;;;;;;;5012898;28;20207;-60
2021/11/11 08:52:45;;;;;;;17.42;12.30;;;;;;;;;;5012987;28;20228;-61
2021/11/11 08:55:12;;;;;;;12.85;11.10;;;;;;;;;;5015582;28;20203;-60
2021/11/11 08:57:41;;;;;;;13.80;12.30;;;;;;;;;;5015989;28;20207;-60
2021/11/11 09:00:12;;;;;;;13.15;11.40;;;;;;;;;;5016493;28;20204;-59
2021/11/11 09:02:40;;;;;;;14.82;11.73;;;;;;;;;;5015973;28;20236;-60
2021/11/11 09:05:08;;;;;;;19.10;12.55;;;;;;;;;;5016427;28;20211;-60
2021/11/11 09:07:38;;;;;;;17.20;11.57;;;;;;;;;;5016138;28;20215;-60
2021/11/11 09:10:06;;;;;;;17.63;11.57;;;;;;;;;;5017058;28;20226;-60
2021/11/11 09:12:33;;;;;;;15.23;11.07;;;;;;;;;;5016337;28;20224;-60
2021/11/11 09:15:03;;;;;;;17.65;11.45;;;;;;;;;;5015899;28;20208;-60
2021/11/11 09:17:31;;;;;;;12.98;10.25;;;;;;;;;;5015885;28;20214;-68
2021/11/11 09:19:58;;;;;;;12.60;10.48;;;;;;;;;;5016310;28;20206;-61
2021/11/11 09:22:26;;;;;;;12.98;11.35;;;;;;;;;;5015554;28;20235;-59
2021/11/11 09:24:53;;;;;;;12.40;10.55;;;;;;;;;;5016109;28;20200;-59
2021/11/11 09:27:20;;;;;;;12.32;10.25;;;;;;;;;;5015555;28;20211;-62
2021/11/11 09:29:48;;;;;;;16.90;12.73;;;;;;;;;;5015198;28;20313;-61
2021/11/11 09:32:16;;;;;;;17.25;12.45;;;;;;;;;;5015861;28;20226;-61
2021/11/11 09:34:44;;;;;;;14.02;10.70;;;;;;;;;;5015933;28;20211;-61
2021/11/11 09:37:11;;;;;;;13.38;11.50;;;;;;;;;;5015929;28;20204;-60
2021/11/11 09:39:39;;;;;;;12.80;10.77;;;;;;;;;;5015812;28;20207;-59
2021/11/11 09:42:06;;;;;;;12.55;9.88;;;;;;;;;;5015624;28;20310;-58
2021/11/11 09:44:34;;;;;;;12.90;10.80;;;;;;;;;;5015089;28;20210;-58
2021/11/11 09:47:01;;;;;;;12.25;10.95;;;;;;;;;;5015737;28;20222;-57
2021/11/11 09:49:30;;;;;;;12.80;11.38;;;;;;;;;;5015386;28;20219;-60
2021/11/11 09:51:57;;;;;;;15.70;11.70;;;;;;;;;;5014995;28;20200;-59
2021/11/11 09:59:55;;;;;;;12.82;10.88;;;;;;;;;;5014855;28;20184;-59
2021/11/11 10:02:23;;;;;;;13.90;11.68;;;;;;;;;;5014691;28;20659;-59
2021/11/11 10:04:52;;;;;;;15.18;10.85;;;;;;;;;;5014716;28;20208;-57
2021/11/11 10:07:19;;;;;;;13.40;11.57;;;;;;;;;;5014814;28;20707;-58
2021/11/11 10:09:47;;;;;;;13.65;11.52;;;;;;;;;;5015230;28;20482;-59
2021/11/11 10:12:21;;;;;;;13.90;11.10;;;;;;;;;;5015594;28;20230;-59
2021/11/11 10:14:49;;;;;;;13.27;10.50;;;;;;;;;;5014997;28;20452;-59
2021/11/11 10:17:18;;;;;;;12.23;10.90;;;;;;;;;;5014964;28;20452;-59
2021/11/11 10:19:47;;;;;;;13.70;10.87;;;;;;;;;;5015166;28;20470;-58
2021/11/11 10:24:48;;;;;;;13.03;11.00;;;;;;;;;;5034461;28;20477;-62
2021/11/11 10:27:27;;;;;;;12.20;9.13;;;;;;;;;;5035535;28;20954;-62
2021/11/11 10:30:00;;;;;;;14.93;8.57;;;;;;;;;;5034738;28;20554;-61
2021/11/11 10:32:29;;;;;;;9.47;8.40;;;;;;;;;;5035047;28;20472;-62
2021/11/11 10:34:57;;;;;;;12.50;8.20;;;;;;;;;;5034815;28;20450;-61
2021/11/11 10:37:26;;;;;;;10.67;8.07;;;;;;;;;;5035032;28;20457;-65
2021/11/11 10:40:00;;;;;;;8.50;7.60;;;;;;;;;;5034733;28;20927;-62
2021/11/11 10:42:28;;;;;;;8.53;7.20;;;;;;;;;;5034611;28;20499;-63
2021/11/11 10:44:58;;;;;;;9.57;8.47;;;;;;;;;;5034681;28;20457;-62
2021/11/11 10:47:27;;;;;;;9.43;6.60;;;;;;;;;;5035529;28;20448;-64
2021/11/11 10:49:55;;;;;;;9.90;8.37;;;;;;;;;;5037588;28;20479;-65
2021/11/11 10:52:25;;;;;;;10.63;7.13;;;;;;;;;;5040336;28;20444;-64
2021/11/11 10:55:01;;;;;;;7.40;6.60;;;;;;;;;;5041183;28;20458;-68
2021/11/11 10:57:33;;;;;;;7.23;6.50;;;;;;;;;;5044857;28;20458;-65
2021/11/11 11:00:06;;;;;;;7.13;6.33;;;;;;;;;;5035806;28;20527;-64
2021/11/11 11:02:49;;;;;;;6.60;5.43;;;;;;;;;;5034895;28;20471;-65
2021/11/11 11:05:16;;;;;;;8.50;6.23;;;;;;;;;;5034161;28;20907;-62
2021/11/11 11:07:45;;;;;;;7.03;5.70;;;;;;;;;;5033804;28;20455;-63
2021/11/11 11:10:22;;;;;;;4.10;3.73;;;;;;;;;;5034348;28;20495;-62
2021/11/11 11:12:50;;;;;;;4.73;3.77;;;;;;;;;;5034404;28;20474;-62
2021/11/11 11:15:36;;;;;;;4.60;3.77;;;;;;;;;;5033619;28;20450;-62
2021/11/11 11:18:04;;;;;;;4.30;3.70;;;;;;;;;;5033314;28;20799;-62
2021/11/11 11:20:31;;;;;;;3.67;3.27;;;;;;;;;;5033638;28;20440;-62
2021/11/11 11:23:16;;;;;;;4.50;3.70;;;;;;;;;;5034070;28;20487;-62
2021/11/11 11:25:52;;;;;;;4.53;4.13;;;;;;;;;;5033630;28;20448;-63
2021/11/11 11:28:29;;;;;;;7.67;4.80;;;;;;;;;;5033675;28;20445;-63
2021/11/11 11:30:58;;;;;;;5.20;4.70;;;;;;;;;;5033471;28;20490;-63
2021/11/11 11:33:34;;;;;;;4.47;4.07;;;;;;;;;;5033412;28;20557;-63
2021/11/11 11:36:02;;;;;;;6.63;4.47;;;;;;;;;;5034101;28;20868;-63
2021/11/11 11:38:30;;;;;;;6.47;4.43;;;;;;;;;;5033739;28;20542;-62
2021/11/11 11:40:59;;;;;;;5.37;4.87;;;;;;;;;;5034292;28;20502;-63
2021/11/11 11:43:27;;;;;;;5.00;4.23;;;;;;;;;;5033530;28;20581;-61
2021/11/11 11:45:54;;;;;;;4.80;4.40;;;;;;;;;;5033567;28;20473;-63
2021/11/11 11:48:24;;;;;;;4.97;3.80;;;;;;;;;;5033418;28;20567;-64
2021/11/11 11:50:59;;;;;;;5.63;4.07;;;;;;;;;;5034024;28;20479;-64
2021/11/11 11:53:28;;;;;;;6.67;4.63;;;;;;;;;;5033237;28;20537;-62
2021/11/11 11:56:00;;;;;;;5.20;4.00;;;;;;;;;;5033436;28;20504;-63
2021/11/11 11:58:38;;;;;;;3.93;3.57;;;;;;;;;;5033165;28;20430;-64
2021/11/11 12:01:16;;;;;;;4.80;4.40;;;;;;;;;;5033691;28;20424;-64
2021/11/11 12:03:51;;;;;;;4.80;4.33;;;;;;;;;;5033341;28;20838;-63
2021/11/11 12:09:19;;;;;;;5.03;4.30;;;;;;;;;;5040187;28;20453;-62
2021/11/11 12:14:47;;;;;;;5.07;4.57;;;;;;;;;;5112408;27;20960;-61
2021/11/11 12:17:35;;;;;;;4.00;3.70;;;;;;;;;;5111863;28;20900;-61
2021/11/11 12:34:34;;;;;;;7.60;6.90;;;;;;;;;;5110548;28;20836;-61
2021/11/11 12:39:51;;;;;;;7.00;6.40;;;;;;;;;;5110290;28;20418;-62
2021/11/11 12:42:21;;;;;;;7.77;6.97;;;;;;;;;;5110523;28;20547;-61
2021/11/11 12:45:08;;;;;;;8.73;7.50;;;;;;;;;;5110469;28;20436;-62
2021/11/11 12:47:38;;;;;;;8.30;7.50;;;;;;;;;;5110307;28;20433;-63
2021/11/11 12:50:23;;;;;;;8.43;7.73;;;;;;;;;;5110304;28;20476;-62
2021/11/11 12:52:51;;;;;;;10.77;7.27;;;;;;;;;;5110653;28;20476;-62
2021/11/11 12:55:19;;;;;;;8.50;7.60;;;;;;;;;;5110977;28;20443;-61
2021/11/11 12:57:57;;;;;;;8.57;7.77;;;;;;;;;;5111005;28;20451;-61
2021/11/11 13:00:36;;;;;;;7.60;6.80;;;;;;;;;;5110512;28;20503;-61
2021/11/11 13:03:06;;;;;;;8.30;7.50;;;;;;;;;;5109902;28;20464;-63
2021/11/11 13:05:47;;;;;;;9.80;8.80;;;;;;;;;;5110233;28;20461;-63
2021/11/11 13:08:15;;;;;;;8.17;6.60;;;;;;;;;;5110632;28;20451;-63
2021/11/11 13:10:56;;;;;;;9.30;6.53;;;;;;;;;;5110563;28;20955;-63
2021/11/11 13:13:26;;;;;;;7.33;6.50;;;;;;;;;;5110457;28;20496;-63
2021/11/11 13:15:54;;;;;;;8.07;6.80;;;;;;;;;;5109865;28;20443;-64
2021/11/11 13:18:42;;;;;;;9.30;8.37;;;;;;;;;;5110246;28;20527;-63
2021/11/11 13:21:10;;;;;;;7.70;7.00;;;;;;;;;;5112392;28;20454;-63
2021/11/11 13:23:42;;;;;;;7.30;6.60;;;;;;;;;;5111794;28;20831;-62
2021/11/11 13:26:38;;;;;;;8.43;7.57;;;;;;;;;;5096010;28;20751;-60
2021/11/11 16:01:00;;;;;;;12.97;11.40;;;;;;;;;;5069517;28;20414;-64
2021/11/11 16:03:50;;;;;;;13.60;11.73;;;;;;;;;;5069548;28;20560;-64
2021/11/11 16:20:14;;;;;;;17.17;13.88;;;;;;;;;;5069581;28;20186;-63
2021/11/11 16:25:24;;;;;;;20.45;13.77;;;;;;;;;;5094899;22;20311;-60
2021/11/11 16:27:51;;;;;;;22.23;14.17;;;;;;;;;;5069135;28;20186;-58
2021/11/11 16:30:21;;;;;;;17.60;14.20;;;;;;;;;;5055158;28;20641;-59
2021/11/11 16:32:49;;;;;;;20.33;14.75;;;;;;;;;;5055463;28;20218;-58
2021/11/11 16:35:17;;;;;;;20.00;16.02;;;;;;;;;;5055255;28;20200;-60
2021/11/11 16:37:45;;;;;;;18.35;15.27;;;;;;;;;;5055282;28;20254;-58
2021/11/11 16:40:15;;;;;;;23.98;15.13;;;;;;;;;;5055696;28;20286;-60
2021/11/11 16:42:43;;;;;;;23.20;16.37;;;;;;;;;;5055687;28;20217;-57
2021/11/11 16:45:10;;;;;;;24.30;15.60;;;;;;;;;;5055665;28;20447;-60
2021/11/11 16:47:38;;;;;;;21.65;16.30;;;;;;;;;;5055456;28;20518;-59
2021/11/11 16:50:05;;;;;;;22.85;15.65;;;;;;;;;;5055710;28;20212;-59
2021/11/11 16:52:33;;;;;;;28.40;15.35;;;;;;;;;;5055611;28;20226;-60
2021/11/11 16:55:00;;;;;;;22.27;16.73;;;;;;;;;;5055047;28;20773;-59
2021/11/11 16:57:29;;;;;;;19.30;14.65;;;;;;;;;;5055499;28;20220;-58
2021/11/11 16:59:56;;;;;;;22.00;16.80;;;;;;;;;;5055410;28;20210;-59
2021/11/11 17:02:24;;;;;;;24.10;16.23;;;;;;;;;;5055685;28;20210;-58
2021/11/11 17:04:51;;;;;;;24.67;16.15;;;;;;;;;;5055212;28;20219;-58
2021/11/11 17:07:20;;;;;;;24.73;16.80;;;;;;;;;;5055422;28;20195;-60
2021/11/11 17:09:48;;;;;;;20.27;16.27;;;;;;;;;;5055312;28;20201;-59
2021/11/11 17:12:15;;;;;;;26.33;16.38;;;;;;;;;;5056071;28;20208;-59
2021/11/11 17:14:46;;;;;;;20.27;17.75;;;;;;;;;;5055073;28;20225;-58
2021/11/11 17:17:14;;;;;;;20.52;15.77;;;;;;;;;;5054817;28;20247;-58
2021/11/11 17:19:42;;;;;;;24.17;17.65;;;;;;;;;;5054939;28;20205;-58
2021/11/11 17:22:14;;;;;;;22.55;17.33;;;;;;;;;;5054620;28;20211;-59
2021/11/11 17:24:44;;;;;;;24.48;16.65;;;;;;;;;;5054608;28;20234;-58
2021/11/11 17:27:30;;;;;;;24.67;17.80;;;;;;;;;;5055001;28;20206;-59
2021/11/11 17:29:59;;;;;;;26.90;16.73;;;;;;;;;;5054518;28;20199;-58
2021/11/11 17:32:30;;;;;;;21.80;15.90;;;;;;;;;;5054488;28;20239;-58
2021/11/11 17:34:58;;;;;;;26.33;17.90;;;;;;;;;;5054855;28;20223;-58
2021/11/11 17:37:25;;;;;;;25.73;18.45;;;;;;;;;;5054712;28;20226;-58
2021/11/11 17:39:52;;;;;;;20.33;15.98;;;;;;;;;;5053865;28;20205;-58
2021/11/11 17:42:20;;;;;;;28.85;17.60;;;;;;;;;;5054337;28;20201;-59
2021/11/11 17:44:47;;;;;;;25.67;17.75;;;;;;;;;;5054604;28;20225;-59
2021/11/11 17:47:17;;;;;;;29.25;19.00;;;;;;;;;;5054412;28;20199;-59
2021/11/11 17:49:46;;;;;;;22.48;17.30;;;;;;;;;;5054721;28;20212;-58
2021/11/11 17:52:18;;;;;;;22.35;17.60;;;;;;;;;;5054557;28;20202;-58
2021/11/11 17:54:52;;;;;;;33.00;17.58;;;;;;;;;;5054372;28;20228;-58
2021/11/11 17:57:21;;;;;;;25.92;18.25;;;;;;;;;;5053821;28;20223;-58
2021/11/11 17:59:49;;;;;;;25.63;18.83;;;;;;;;;;5054520;28;20261;-57
2021/11/11 18:02:24;;;;;;;25.42;18.27;;;;;;;;;;5054631;28;20216;-58
2021/11/11 18:04:52;;;;;;;27.90;19.67;;;;;;;;;;5054426;28;20264;-58
2021/11/11 18:07:22;;;;;;;24.92;18.90;;;;;;;;;;5053938;28;20207;-58
2021/11/11 18:09:53;;;;;;;32.20;20.88;;;;;;;;;;5053861;28;20733;-58
2021/11/11 18:12:24;;;;;;;31.60;20.13;;;;;;;;;;5054123;28;20611;-57
2021/11/11 18:14:57;;;;;;;34.78;22.30;;;;;;;;;;5053852;28;20664;-58
2021/11/11 18:17:26;;;;;;;27.45;19.73;;;;;;;;;;5053834;28;20209;-58
2021/11/11 18:19:54;;;;;;;30.13;21.48;;;;;;;;;;5053665;28;20659;-56